Selman, Oklahoma
Current Conditions -  °F | °C
As of 4:55 AM on Monday 20 Oct 2014 (Local Time) from KWWR Reporting Station
Clear Clear  
Wind Chill: 59°   Ceiling: Unl
Heat Index: 59°   Visibility: 10mi
Dew Point: 55°   Wind: 10mph
Humidity: 88%   Direction: 220°SW
Pressure: 30.04"   Gusts: NA
Location:  36.8001°N, 99.5258°W
Report Text: KWWR 200955Z AUTO 22009KT 10SM CLR 15/13 A3004 RMK AO2
Loading
Personal Weather Stations






























Interactive Weather Map
Tropical Storm Tracking
New forecast layout! Learn more

10-Day Weather Forecast

Advertisements
Track Severe Weather on mobile